Hector Moreno

Ojeador - Toluca
20 Feb 2028
Domingo
Continuar

Personalidad

Adaptabilidad (8) Ambición (2) Controversia (8) Lealtad (8) Presión (12) Profesionalismo (14) Deportividad (15) Temperamento (16)

Perfil

Estilo de dirección Democrático
Licencia Nacional B
Determinación 7
Gestión de personas 13
Motivación 8
Disciplina 9
Satisfacción laboral
100%
Fatiga
0%
Cargo Ojeador
Salario 29.8K p/s
Contrato 14.03.2028

Rendimiento

Comportamiento Bueno
Efectividad del entrenamiento
44%
Desarrollo de jugadores
55%
Prevención de lesiones
45%
Implementación táctica
65%

Eventos recientes

Negociación de contrato iniciada ahora
Asistió a una reunión de captación ahora
Negociación de contrato iniciada ahora
Negociación de contrato iniciada ahora
Negociación de contrato iniciada ahora
Negociación de contrato iniciada 7d atrás
Negociación de contrato iniciada 7d atrás
Negociación de contrato iniciada 7d atrás

Actualmente siguiendo

64
Jugador Club Estado Habilidad Confianza Observado Última observación Último voto
Brian Gutiérrez Guadalajara Activo 131 / 129 40% 1 02.01.2027 -
Félix Lemaréchal Club Brugge Activo 121 / 125 40% 1 02.01.2027 -
Welington Southampton Activo 131 / 119 40% 1 31.12.2026 -
Matteo Dams Club Brugge Activo 133 / 126 40% 1 31.12.2026 -
Robert FC Copenhagen Activo 120 / 126 40% 3 28.12.2026 -
João Virgínia Wolverhampton Activo 120 / 124 40% 2 28.12.2026 -
Nahuel Galardi Maipú Activo 117 / 105 40% 1 28.12.2026 -
Thulani Dala Platinum Stars Activo 96 / 93 40% 1 28.12.2026 -
Shea Charles Southampton Activo 142 / 137 40% 1 27.12.2026 -
Agustín Lastra Estudiantes Activo 110 / 113 40% 3 25.12.2026 -
Nicolás Sumavil Platense Activo 122 / 115 40% 4 24.12.2026 -
Michael Cooper Sheffield United Activo 119 / 124 40% 2 24.12.2026 -
Radek Vítek Middlesbrough Activo 128 / 144 40% 6 23.12.2026 -
Brent Gabriel Zulte Waregem Activo 114 / 114 40% 2 21.12.2026 -
Lander Astiazarán Real Sociedad Activo 114 / 105 40% 2 19.12.2026 -
Giovanni Cantizano Rosario Central Activo 96 / 121 40% 2 19.12.2026 -
Endrick Real Madrid Activo 161 / 153 40% 1 17.12.2026 -
Rocco Vata Watford Activo 117 / 126 40% 1 17.12.2026 -
Felipe Parra Envigado Activo 129 / 115 40% 2 16.12.2026 -
Oscar Schwartau Norwich City Activo 107 / 122 40% 1 16.12.2026 -
Mads Hermansen West Ham United Activo 129 / 146 40% 2 14.12.2026 -
Santiago Silva CFR Cluj Activo 113 / 116 40% 7 11.12.2026 -
Facundo Vila Estudiantes Activo 92 / 95 40% 1 10.12.2026 -
George Wickens Lincoln City Activo 113 / 107 40% 1 10.12.2026 -
Bradley Mabunda SuperSport United Activo 114 / 112 40% 2 09.12.2026 -
Giovanni Baroni Talleres Activo 119 / 123 40% 1 08.12.2026 -
Neco Williams Nottingham Forest Activo 148 / 141 40% 1 07.12.2026 -
Lewis Ferguson Bologna Activo 143 / 151 40% 1 07.12.2026 -
Matheus Gonçalves Al-Ahli Activo 114 / 123 40% 1 06.12.2026 -
Jonás Luna Santa Clara Activo 117 / 121 40% 3 05.12.2026 -
Mauro Silveira Junior Activo 129 / 129 40% 3 05.12.2026 -
Héctor Holguín Veracruz Activo 114 / 112 40% 1 05.12.2026 -
Samuel Lucero Defensa y Justicia Activo 118 / 120 40% 1 03.12.2026 -
Grégoire Coudert Burnley Activo 139 / 136 40% 2 02.12.2026 -
Enzo Vázquez Central Norte Activo 109 / 101 40% 2 28.11.2026 -
Esteban Glellel Quilmes Activo 115 / 112 40% 2 28.11.2026 -
Joaquín Enrico San Telmo Activo 117 / 107 40% 4 27.11.2026 -
Manuel Rios La Equidad Activo 106 / 105 40% 1 25.11.2026 -
Luis Ingolotti Atlético Tucumán Activo 134 / 118 40% 4 24.11.2026 -
Gorka Gorosabel Real Sociedad Activo 99 / 121 40% 2 22.11.2026 -
Patrick Preciado Deportivo Pasto Activo 91 / 109 40% 1 22.11.2026 -
Aníbal Moreno River Plate Activo 137 / 142 40% 1 22.11.2026 -
Francisco Salerno Defensores Unidos Activo 99 / 104 40% 2 15.11.2026 -
Christian Krasnodar Activo 121 / 138 40% 1 15.11.2026 -
Luke McNally Bristol City Activo 131 / 118 40% 1 15.11.2026 -
Jan Virgili Club Brugge Activo 141 / 141 40% 1 11.11.2026 -
Ramón Juárez Club America Activo 125 / 128 40% 1 09.11.2026 -
Florentino Luís Ipswich Town Activo 143 / 140 40% 1 09.11.2026 -
Tomás Ahumada Audax Italiano Activo 109 / 115 40% 2 02.11.2026 -
Ignacio Perruzzi San Lorenzo Activo 119 / 133 40% 3 02.11.2026 -
Cristopher Varela Deportivo La Guaira Activo 130 / 120 40% 2 31.10.2026 -
Roman Celentano FC Cincinnati Activo 131 / 112 40% 1 30.10.2026 -
Santiago Roggero Gimnasia y Esgrima Activo 94 / 111 40% 1 30.10.2026 -
Tomás Durso Atlético Tucumán Activo 105 / 123 40% 1 29.10.2026 -
Federico Varese Racing Activo 111 / 107 40% 2 28.10.2026 -
Tristan Degreef Anderlecht Activo 122 / 132 40% 1 27.10.2026 -
Valentino Acuña Newell's Old Boys Activo 103 / 128 40% 1 16.10.2026 -
Manuel Roffo Cerro Porteno Activo 139 / 127 40% 1 11.10.2026 -
Kazuki Fujita Avispa Fukuoka Activo 112 / 135 40% 1 11.10.2026 -
Lautaro Amadé Defensa y Justicia Activo 104 / 113 40% 1 23.09.2026 -
Franco Carretero Deportivo Lara Activo 91 / 105 40% 2 10.09.2026 -
Francisco Castillo Llaneros Activo 95 / 94 40% 1 10.09.2026 -
Alejandro Alcalá Dila Activo 97 / 82 40% 1 07.09.2026 -
Ángel Sepúlveda Guadalajara Activo 128 / 122 58% 1 31.08.2026 -